Time;durP1;ratioP1;P1;durP2;ratioP2;P2;SDS_P1;SDS_P2;PMS_P1;PMS_P2;Temp;Humidity;BMP_temperature;BMP_pressure;BME280_temperature;BME280_humidity;BME280_pressure;Samples;Min_cycle;Max_cycle;Signal;HPM_P1;HPM_P2
2022/09/19 00:01:58;;;;;;;;;0.20;0.20;;;;;17.23;35.53;99098.00;5090331;28;8863;-76
2022/09/19 00:04:30;;;;;;;;;0.00;0.00;;;;;17.32;35.09;99103.81;5098050;28;8838;-75
2022/09/19 00:07:00;;;;;;;;;0.00;0.00;;;;;17.31;35.12;99101.22;5069402;28;8858;-75
2022/09/19 00:09:31;;;;;;;;;1.00;1.00;;;;;17.40;34.77;99107.97;5086784;28;8862;-75
2022/09/19 00:12:00;;;;;;;;;0.80;0.80;;;;;17.29;34.73;99096.00;5071201;28;9004;-75
2022/09/19 00:14:30;;;;;;;;;0.20;0.20;;;;;17.20;34.84;99095.47;5103738;28;8842;-76
2022/09/19 00:17:02;;;;;;;;;0.00;0.00;;;;;17.40;34.57;99090.34;5073129;28;8838;-74
2022/09/19 00:19:32;;;;;;;;;0.40;0.40;;;;;17.45;34.65;99088.44;5069840;28;8846;-74
2022/09/19 00:22:02;;;;;;;;;0.00;0.00;;;;;17.52;34.24;99081.13;5070519;28;8858;-76
2022/09/19 00:24:49;;;;;;;;;0.00;0.00;;;;;17.53;34.00;99078.47;5067964;28;8859;-74
2022/09/19 00:27:21;;;;;;;;;0.00;0.00;;;;;17.34;34.15;99075.63;5067813;28;8881;-74
2022/09/19 00:29:51;;;;;;;;;1.60;1.00;;;;;17.47;33.74;99068.16;5067624;28;8856;-75
2022/09/19 00:32:21;;;;;;;;;0.20;0.20;;;;;17.46;33.80;99063.78;5067520;28;8856;-74
2022/09/19 00:34:55;;;;;;;;;0.00;0.00;;;;;17.43;33.50;99069.19;5051397;28;8870;-76
2022/09/19 00:37:25;;;;;;;;;0.40;0.40;;;;;17.52;33.30;99063.56;5067758;28;8852;-74
2022/09/19 00:39:54;;;;;;;;;0.80;0.00;;;;;17.35;33.21;99065.94;5067789;28;8868;-75
2022/09/19 00:42:24;;;;;;;;;0.20;0.20;;;;;17.47;33.13;99062.03;5066558;28;8901;-75
2022/09/19 00:44:57;;;;;;;;;0.00;0.00;;;;;17.27;33.87;99057.47;5034485;28;8979;-73
2022/09/19 00:47:35;;;;;;;;;0.00;0.00;;;;;17.50;33.23;99052.22;5050821;28;8928;-75
2022/09/19 00:50:10;;;;;;;;;1.00;0.00;;;;;17.56;33.04;99052.88;5050792;28;9632;-75
2022/09/19 00:52:44;;;;;;;;;0.60;0.00;;;;;17.73;32.76;99051.34;5034359;28;8889;-76
2022/09/19 00:55:13;;;;;;;;;0.00;0.00;;;;;17.75;32.71;99048.66;5068693;28;8964;-75
2022/09/19 00:57:50;;;;;;;;;0.00;0.00;;;;;17.47;33.21;99051.47;5069928;28;8960;-74
2022/09/19 01:00:18;;;;;;;;;0.00;0.00;;;;;17.52;33.32;99039.84;5085439;28;8850;-74
2022/09/19 01:02:48;;;;;;;;;0.00;0.00;;;;;17.46;33.06;99034.78;5122304;27;9631;-76
2022/09/19 01:05:28;;;;;;;;;0.00;0.00;;;;;17.58;32.75;99032.59;5089068;28;8893;-75
2022/09/19 01:08:26;;;;;;;;;1.00;0.00;;;;;17.45;32.84;99024.31;5088524;28;8866;-74
2022/09/19 01:11:11;;;;;;;;;0.00;0.00;;;;;17.57;32.46;99025.63;4994257;28;8860;-76
2022/09/19 01:13:49;;;;;;;;;0.00;0.00;;;;;17.45;32.60;99021.69;5010729;28;8886;-76
2022/09/19 01:16:24;;;;;;;;;0.00;0.00;;;;;17.51;32.70;99017.03;4994499;28;8871;-76
2022/09/19 01:19:05;;;;;;;;;1.00;1.00;;;;;17.57;32.22;99015.94;5009927;28;9626;-74
2022/09/19 01:21:45;;;;;;;;;0.00;0.00;;;;;17.42;32.51;99013.88;5010331;28;8868;-75
2022/09/19 01:24:43;;;;;;;;;1.00;1.00;;;;;17.51;32.85;99013.53;5027004;28;8876;-73
2022/09/19 01:27:40;;;;;;;;;0.00;0.00;;;;;17.31;33.01;99017.75;4999284;28;8858;-75
2022/09/19 01:30:12;;;;;;;;;1.00;1.00;;;;;17.42;32.80;99008.59;4952163;28;8866;-74
2022/09/19 01:32:52;;;;;;;;;1.80;0.00;;;;;17.56;33.08;99008.06;4955212;28;8972;-73
2022/09/19 01:35:27;;;;;;;;;0.00;0.00;;;;;17.39;33.35;98999.03;4968621;28;8867;-75
2022/09/19 01:38:03;;;;;;;;;0.00;0.00;;;;;17.34;33.33;99001.84;4979471;28;8873;-75
2022/09/19 01:40:34;;;;;;;;;0.40;0.40;;;;;17.52;33.28;99002.06;4987460;28;8882;-77
2022/09/19 01:43:12;;;;;;;;;1.00;0.00;;;;;17.59;33.34;98989.50;4987762;28;9023;-74
2022/09/19 01:45:43;;;;;;;;;0.60;0.00;;;;;17.39;33.80;98990.25;4987804;28;8862;-75
2022/09/19 01:48:19;;;;;;;;;0.80;0.40;;;;;17.40;33.30;98982.28;4999867;28;9603;-73
2022/09/19 01:51:05;;;;;;;;;0.00;0.00;;;;;17.24;33.04;98984.66;5009365;28;8824;-74
2022/09/19 01:53:51;;;;;;;;;0.00;0.00;;;;;17.24;33.54;98974.09;5026139;28;8860;-74
2022/09/19 01:56:44;;;;;;;;;0.00;0.00;;;;;17.32;32.91;98984.38;5026244;28;8860;-76
2022/09/19 01:59:28;;;;;;;;;0.00;0.00;;;;;17.32;32.98;98989.63;5026184;28;8872;-75
2022/09/19 02:02:05;;;;;;;;;0.00;0.00;;;;;17.44;32.95;98980.41;5042412;28;8856;-74
2022/09/19 02:04:44;;;;;;;;;0.00;0.00;;;;;17.25;32.72;98969.69;5010720;28;8934;-74
2022/09/19 02:07:23;;;;;;;;;0.00;0.00;;;;;17.19;32.92;98976.03;5060711;28;8826;-76
2022/09/19 02:10:00;;;;;;;;;0.00;0.00;;;;;17.32;33.02;98971.19;5055978;28;8918;-75
2022/09/19 02:12:39;;;;;;;;;0.00;0.00;;;;;17.41;32.86;98968.22;5055231;28;9735;-78
2022/09/19 02:15:26;;;;;;;;;1.00;0.00;;;;;17.53;32.73;98956.34;5069772;28;8864;-76
2022/09/19 02:18:04;;;;;;;;;0.00;0.00;;;;;17.52;32.84;98968.66;5049789;28;8853;-75
2022/09/19 02:20:34;;;;;;;;;0.80;0.80;;;;;17.42;32.73;98963.78;5065836;28;8852;-75
2022/09/19 02:23:14;;;;;;;;;3.40;1.00;;;;;17.61;32.87;98962.16;5079471;28;9666;-74
2022/09/19 02:25:46;;;;;;;;;0.00;0.00;;;;;17.57;32.96;98960.56;5069066;28;8839;-74
2022/09/19 02:28:21;;;;;;;;;0.00;0.00;;;;;17.72;32.45;98969.66;5085658;28;8855;-75
2022/09/19 02:30:53;;;;;;;;;0.00;0.00;;;;;17.70;32.70;98959.16;5082905;28;9035;-74
2022/09/19 02:33:24;;;;;;;;;0.00;0.00;;;;;17.63;32.81;98968.22;5072774;28;8820;-75
2022/09/19 02:35:59;;;;;;;;;0.40;0.00;;;;;17.93;32.51;98970.63;5090703;28;8843;-76
2022/09/19 02:38:36;;;;;;;;;0.00;0.00;;;;;18.11;32.23;98961.13;5077861;28;8862;-74
2022/09/19 02:41:19;;;;;;;;;0.00;0.00;;;;;18.08;32.60;98970.00;5088178;28;9644;-76
2022/09/19 02:43:55;;;;;;;;;0.00;0.00;;;;;17.94;32.63;98977.63;5103845;28;8901;-74
2022/09/19 02:46:32;;;;;;;;;0.00;0.00;;;;;18.18;32.34;98981.03;5087041;28;9491;-75
2022/09/19 02:49:09;;;;;;;;;1.80;1.80;;;;;18.28;32.68;98977.13;5083363;28;8927;-75
2022/09/19 02:51:43;;;;;;;;;0.00;0.00;;;;;18.29;32.33;98967.41;5083549;28;10108;-75
2022/09/19 02:54:19;;;;;;;;;1.40;1.00;;;;;17.83;32.81;98966.63;5066780;28;9568;-75
2022/09/19 02:56:51;;;;;;;;;1.00;1.00;;;;;17.82;32.74;98975.44;5084255;28;8840;-74
2022/09/19 02:59:27;;;;;;;;;2.00;0.00;;;;;17.87;32.79;98971.72;5087238;28;8867;-72
2022/09/19 03:02:02;;;;;;;;;0.20;0.20;;;;;17.84;32.95;98963.91;5082581;28;8858;-75
2022/09/19 03:04:40;;;;;;;;;0.00;0.00;;;;;17.77;32.77;98954.53;5065696;28;8858;-74
2022/09/19 03:07:13;;;;;;;;;1.00;1.00;;;;;17.62;32.82;98953.34;5066477;28;8988;-74
2022/09/19 03:10:03;;;;;;;;;0.00;0.00;;;;;17.70;32.87;98956.53;5077919;28;8887;-74
2022/09/19 03:12:46;;;;;;;;;0.20;0.00;;;;;17.62;32.66;98955.97;5082974;28;8962;-74
2022/09/19 03:15:16;;;;;;;;;0.40;0.40;;;;;17.46;33.13;98960.97;5066292;28;8842;-75
2022/09/19 03:17:49;;;;;;;;;0.00;0.00;;;;;17.56;33.01;98957.97;5066232;28;9611;-73
2022/09/19 03:20:23;;;;;;;;;0.60;0.60;;;;;17.39;32.70;98962.13;5066490;28;8842;-75
2022/09/19 03:22:53;;;;;;;;;3.00;2.00;;;;;17.47;32.80;98954.78;5051811;28;8887;-74
2022/09/19 03:25:26;;;;;;;;;2.60;2.60;;;;;17.56;32.61;98950.94;5083011;28;8954;-75
2022/09/19 03:27:55;;;;;;;;;0.00;0.00;;;;;17.45;32.98;98959.25;5084151;28;8844;-75
2022/09/19 03:30:25;;;;;;;;;0.60;0.60;;;;;17.44;32.83;98944.34;5104040;28;8855;-74
2022/09/19 03:32:53;;;;;;;;;0.60;0.40;;;;;17.44;32.81;98957.53;5102295;28;8855;-74
2022/09/19 03:35:24;;;;;;;;;0.80;0.80;;;;;17.48;32.92;98958.28;5080452;28;8857;-76
2022/09/19 03:37:53;;;;;;;;;0.00;0.00;;;;;17.55;32.79;98946.59;5082943;28;8865;-73
2022/09/19 03:40:23;;;;;;;;;0.00;0.00;;;;;17.72;32.69;98953.84;5064825;28;8854;-76
2022/09/19 03:42:53;;;;;;;;;0.40;0.40;;;;;17.54;33.17;98960.66;5077425;28;8848;-77
2022/09/19 03:45:24;;;;;;;;;16.80;15.60;;;;;17.79;32.95;98957.97;5102921;28;8879;-75
2022/09/19 03:47:53;;;;;;;;;1.00;1.00;;;;;18.02;32.65;98970.25;5069442;28;9002;-75
2022/09/19 03:50:24;;;;;;;;;4.00;4.00;;;;;18.06;32.73;98968.34;5102861;28;8839;-74
2022/09/19 03:53:11;;;;;;;;;2.00;2.00;;;;;17.90;32.76;98971.63;5103248;28;8894;-74
2022/09/19 03:55:40;;;;;;;;;6.00;6.00;;;;;17.85;33.30;98967.44;5098943;28;8954;-74
2022/09/19 03:58:13;;;;;;;;;3.00;3.00;;;;;18.12;33.59;98968.94;5065978;28;8865;-75
2022/09/19 04:00:41;;;;;;;;;17.00;13.40;;;;;17.32;34.18;98984.38;5120359;28;8856;-75
2022/09/19 04:03:12;;;;;;;;;4.00;4.00;;;;;16.69;36.87;98995.34;5070063;28;8854;-76
2022/09/19 04:05:44;;;;;;;;;3.60;3.00;;;;;16.06;39.06;98997.41;5066279;28;8830;-74
2022/09/19 04:08:13;;;;;;;;;7.40;5.60;;;;;15.79;41.76;98994.72;5065788;28;8977;-75
2022/09/19 04:10:43;;;;;;;;;4.20;4.00;;;;;15.33;41.54;98998.72;5066328;28;8842;-73
2022/09/19 04:13:13;;;;;;;;;4.00;4.00;;;;;15.07;44.53;99004.69;5048095;28;8851;-74
2022/09/19 04:15:45;;;;;;;;;5.60;5.00;;;;;14.83;45.66;99019.34;5050735;28;8951;-74
2022/09/19 04:18:15;;;;;;;;;6.20;6.20;;;;;14.67;47.45;99021.50;5086158;28;8872;-75
2022/09/19 04:20:46;;;;;;;;;6.60;6.60;;;;;14.67;48.93;99012.75;5086439;28;8873;-73
2022/09/19 04:23:30;;;;;;;;;5.40;5.40;;;;;14.81;48.85;99006.25;5069332;28;8996;-76
2022/09/19 04:26:28;;;;;;;;;7.20;7.20;;;;;15.30;47.09;98998.78;5072387;28;9662;-74
2022/09/19 04:28:57;;;;;;;;;10.60;8.20;;;;;15.71;46.29;98996.72;5091142;28;8840;-73
2022/09/19 04:31:26;;;;;;;;;6.80;6.80;;;;;16.05;46.28;98994.81;5089472;28;8856;-74
2022/09/19 04:33:56;;;;;;;;;6.60;6.60;;;;;16.37;46.37;98992.03;5084246;28;8874;-74
2022/09/19 04:36:27;;;;;;;;;6.60;6.60;;;;;16.66;47.03;98990.19;5101978;28;8838;-76
2022/09/19 04:39:02;;;;;;;;;8.80;8.60;;;;;16.77;47.83;98985.41;5085315;28;8854;-75
2022/09/19 04:41:34;;;;;;;;;13.60;9.40;;;;;16.95;48.25;98993.59;5067766;28;8846;-75
2022/09/19 04:44:05;;;;;;;;;8.80;7.00;;;;;17.06;47.94;98994.06;5102290;27;8984;-76
2022/09/19 04:46:50;;;;;;;;;7.00;7.00;;;;;17.02;48.27;98995.09;5038545;28;8896;-77
2022/09/19 04:49:19;;;;;;;;;9.40;9.40;;;;;17.08;47.84;99000.13;5091594;28;10235;-74
2022/09/19 04:51:49;;;;;;;;;10.20;10.20;;;;;17.06;48.74;98996.69;5021655;28;9565;-76
2022/09/19 04:54:19;;;;;;;;;9.40;7.60;;;;;17.13;47.92;98992.94;5105594;28;8878;-75
2022/09/19 04:56:49;;;;;;;;;8.40;7.00;;;;;17.25;46.76;98983.72;5088338;28;8855;-76
2022/09/19 04:59:18;;;;;;;;;7.60;7.60;;;;;17.28;46.01;98990.66;5078635;28;8847;-75
2022/09/19 05:01:47;;;;;;;;;5.80;5.60;;;;;17.38;45.59;98985.91;5067896;28;8927;-75
2022/09/19 05:04:16;;;;;;;;;7.60;6.40;;;;;17.46;45.16;98987.31;5066643;28;8984;-74
2022/09/19 05:06:45;;;;;;;;;11.20;8.80;;;;;17.50;45.31;98981.03;5064041;28;8952;-74
2022/09/19 05:09:16;;;;;;;;;6.00;5.00;;;;;17.49;44.57;98984.59;5070338;28;8862;-77
2022/09/19 05:11:49;;;;;;;;;6.60;6.20;;;;;17.51;44.24;98984.53;5070311;28;8846;-74
2022/09/19 05:14:21;;;;;;;;;7.60;7.00;;;;;17.67;43.99;98976.88;5070311;28;8860;-75
2022/09/19 05:16:56;;;;;;;;;11.60;9.80;;;;;17.76;44.27;98979.16;5053898;28;8837;-74
2022/09/19 05:19:24;;;;;;;;;12.80;10.00;;;;;17.64;44.55;98983.16;5070466;28;8858;-75
2022/09/19 05:21:55;;;;;;;;;6.80;6.80;;;;;17.78;44.59;98994.94;5053890;28;8988;-73
2022/09/19 05:24:25;;;;;;;;;7.00;6.00;;;;;17.78;43.82;98994.94;5071655;28;8916;-75
2022/09/19 05:26:58;;;;;;;;;7.20;6.20;;;;;17.77;43.48;98986.16;5069561;28;8872;-75
2022/09/19 05:29:28;;;;;;;;;10.80;10.60;;;;;17.86;43.46;98998.16;5052984;28;8960;-74
2022/09/19 05:32:02;;;;;;;;;8.00;7.40;;;;;17.91;43.24;99002.34;5035731;28;8853;-74
2022/09/19 05:35:00;;;;;;;;;7.00;6.80;;;;;18.04;42.46;98993.94;5085097;28;8863;-74
2022/09/19 05:37:46;;;;;;;;;8.20;7.00;;;;;18.23;41.77;98989.63;5084149;28;8865;-74
2022/09/19 05:40:38;;;;;;;;;10.00;8.60;;;;;18.36;41.13;98992.63;5126653;27;8849;-73
2022/09/19 05:43:11;;;;;;;;;7.60;6.80;;;;;18.50;40.69;98989.41;5109355;27;8837;-73
2022/09/19 05:45:41;;;;;;;;;6.00;6.00;;;;;18.54;39.94;98982.22;5126556;27;8857;-75
2022/09/19 05:48:10;;;;;;;;;5.20;5.20;;;;;18.73;39.90;98979.66;5090037;28;8867;-75
2022/09/19 05:50:39;;;;;;;;;8.80;6.60;;;;;18.59;39.53;98989.03;5090000;28;8851;-74
2022/09/19 05:55:57;;;;;;;;;4.60;4.60;;;;;18.87;39.06;98987.88;5093007;27;8888;-80
2022/09/19 05:58:33;;;;;;;;;9.40;8.80;;;;;18.72;38.93;98981.44;5094139;28;8847;-76
2022/09/19 06:01:04;;;;;;;;;6.20;6.20;;;;;18.82;38.99;98984.56;5074183;28;8864;-74
2022/09/19 06:03:34;;;;;;;;;8.80;6.80;;;;;18.77;39.07;98973.31;5081374;28;8925;-77
2022/09/19 06:06:11;;;;;;;;;6.00;6.00;;;;;18.84;39.02;98982.72;5102113;27;8855;-80
2022/09/19 06:08:41;;;;;;;;;8.00;6.80;;;;;18.95;38.05;98979.63;5103547;27;8859;-77
2022/09/19 06:11:12;;;;;;;;;7.00;7.00;;;;;18.99;37.88;98982.03;5095647;27;8852;-74
2022/09/19 06:16:29;;;;;;;;;4.40;4.40;;;;;19.12;37.81;98974.44;5067554;28;8872;-76
2022/09/19 06:19:16;;;;;;;;;5.40;5.40;;;;;19.12;37.70;98968.31;5002044;28;8876;-74
2022/09/19 06:21:51;;;;;;;;;3.00;3.00;;;;;19.18;37.28;98965.38;5025814;28;8856;-74
2022/09/19 06:24:20;;;;;;;;;3.60;3.60;;;;;19.34;36.88;98970.81;5041942;28;8856;-78
2022/09/19 06:26:53;;;;;;;;;4.00;4.00;;;;;19.50;36.57;98963.03;5042333;28;8907;-74
2022/09/19 06:29:23;;;;;;;;;4.00;4.00;;;;;19.54;36.47;98970.75;5031471;28;9026;-73
2022/09/19 06:32:15;;;;;;;;;7.40;7.20;;;;;19.56;36.01;98962.75;4986236;28;8873;-74
2022/09/19 06:34:46;;;;;;;;;2.20;2.20;;;;;19.58;35.65;98952.97;4985837;28;8892;-75
2022/09/19 06:37:30;;;;;;;;;3.00;3.00;;;;;19.72;35.25;98961.16;5002451;28;8967;-74
2022/09/19 06:39:59;;;;;;;;;5.60;5.60;;;;;19.87;35.41;98967.50;4985029;28;8881;-74
2022/09/19 06:43:01;;;;;;;;;5.00;5.00;;;;;19.88;34.94;98955.13;4985856;28;8893;-73
2022/09/19 06:45:48;;;;;;;;;3.00;3.00;;;;;19.87;34.37;98959.56;4969665;28;9864;-73
2022/09/19 06:48:22;;;;;;;;;3.20;3.20;;;;;19.91;33.74;98952.34;4985960;28;8858;-77
2022/09/19 06:51:04;;;;;;;;;2.40;2.40;;;;;19.86;33.54;98941.94;5002147;28;9681;-74
2022/09/19 06:53:32;;;;;;;;;2.00;2.00;;;;;19.90;33.33;98953.25;4981148;28;8877;-76
2022/09/19 06:56:05;;;;;;;;;3.00;2.80;;;;;19.97;32.77;98949.38;4966105;28;8951;-74
2022/09/19 06:58:37;;;;;;;;;2.00;1.80;;;;;20.10;32.91;98953.13;4966761;28;8867;-75
2022/09/19 07:01:06;;;;;;;;;2.60;2.20;;;;;20.13;32.81;98949.47;4966361;28;8892;-73
2022/09/19 07:03:36;;;;;;;;;1.80;1.80;;;;;20.18;32.87;98952.75;4950257;28;8860;-74
2022/09/19 07:06:06;;;;;;;;;3.40;2.00;;;;;20.22;32.48;98949.03;4966356;28;8865;-76
2022/09/19 07:08:38;;;;;;;;;5.40;3.20;;;;;20.32;32.37;98955.59;4972056;28;8847;-75
2022/09/19 07:11:09;;;;;;;;;4.60;4.60;;;;;20.42;32.78;98956.81;4974017;28;9121;-76
2022/09/19 07:13:43;;;;;;;;;5.40;4.40;;;;;20.24;33.20;98952.44;4989138;28;8998;-72
2022/09/19 07:16:12;;;;;;;;;6.40;6.40;;;;;20.35;33.79;98950.13;4989013;28;8901;-74
2022/09/19 07:18:41;;;;;;;;;7.80;7.00;;;;;20.41;34.50;98952.44;4999080;28;8938;-76
2022/09/19 07:21:28;;;;;;;;;10.40;8.60;;;;;20.69;34.55;98956.38;5088209;28;8847;-75
2022/09/19 07:24:01;;;;;;;;;8.60;8.00;;;;;20.60;34.60;98970.97;5070132;28;8851;-74
2022/09/19 07:26:58;;;;;;;;;7.40;6.80;;;;;20.19;35.25;98960.63;5084940;28;8849;-75
2022/09/19 07:29:30;;;;;;;;;9.40;7.60;;;;;20.43;35.27;98965.63;5068338;28;9595;-74
2022/09/19 07:32:01;;;;;;;;;8.20;8.00;;;;;20.54;34.91;98968.59;5101640;28;8825;-75
2022/09/19 07:34:33;;;;;;;;;14.20;13.80;;;;;20.55;35.17;98978.25;5074992;28;8863;-74
2022/09/19 07:37:05;;;;;;;;;13.20;11.80;;;;;20.71;35.43;98965.09;5088469;28;8874;-75
2022/09/19 07:39:34;;;;;;;;;11.00;10.00;;;;;20.79;34.42;98965.59;5088492;28;8934;-75
2022/09/19 07:42:41;;;;;;;;;7.20;7.20;;;;;21.06;34.03;98972.16;5106342;28;8812;-76
2022/09/19 07:45:34;;;;;;;;;17.20;12.40;;;;;20.50;35.82;98972.34;5070349;28;8869;-74
2022/09/19 07:48:26;;;;;;;;;7.80;7.60;;;;;20.70;35.27;98965.19;4986081;28;8862;-75
2022/09/19 07:51:13;;;;;;;;;4.60;3.80;;;;;21.00;34.49;98962.72;4975481;28;9001;-74
2022/09/19 07:53:43;;;;;;;;;4.00;3.80;;;;;21.21;33.04;98961.59;4990240;28;8842;-75
2022/09/19 07:56:12;;;;;;;;;4.80;4.60;;;;;21.33;33.78;98976.00;4990169;28;8935;-78
2022/09/19 07:58:40;;;;;;;;;6.20;6.20;;;;;21.54;33.32;98970.50;4989509;28;8878;-74
2022/09/19 08:01:10;;;;;;;;;5.80;5.40;;;;;21.60;34.01;98971.00;4989289;28;8869;-75
2022/09/19 08:03:57;;;;;;;;;7.60;6.20;;;;;21.39;34.89;98966.84;4976851;28;8847;-75
2022/09/19 08:06:34;;;;;;;;;9.80;8.60;;;;;21.59;34.37;98968.44;4969615;28;8894;-75
2022/09/19 08:09:05;;;;;;;;;6.60;6.60;;;;;21.68;34.37;98957.34;4969775;28;9641;-73
2022/09/19 08:12:01;;;;;;;;;15.20;14.00;;;;;21.94;33.95;98963.81;4969112;28;8863;-74
2022/09/19 08:14:34;;;;;;;;;7.20;7.20;;;;;22.04;33.23;98963.28;4969482;28;8859;-77
2022/09/19 08:17:05;;;;;;;;;8.00;7.00;;;;;20.99;34.62;98977.78;4969299;28;8871;-75
2022/09/19 08:19:35;;;;;;;;;8.80;7.80;;;;;21.01;35.29;98980.34;4953336;28;8994;-75
2022/09/19 08:22:04;;;;;;;;;6.60;5.60;;;;;20.85;35.84;98982.97;4956826;28;8873;-78
2022/09/19 08:24:38;;;;;;;;;8.40;5.20;;;;;20.40;36.07;98989.63;4964302;28;8868;-74
2022/09/19 08:27:13;;;;;;;;;6.20;6.20;;;;;21.02;35.48;98995.34;5086332;28;8855;-76
2022/09/19 08:29:43;;;;;;;;;6.00;5.40;;;;;20.99;35.49;98995.50;5086507;28;8839;-73
2022/09/19 08:32:17;;;;;;;;;6.20;6.20;;;;;21.08;35.15;98989.72;5070309;28;8854;-75
2022/09/19 08:34:45;;;;;;;;;13.00;11.80;;;;;20.50;36.38;99006.75;5070023;28;8862;-74
2022/09/19 08:37:16;;;;;;;;;0.00;0.00;;;;;20.71;35.25;99009.31;5071625;28;8837;-75
2022/09/19 08:40:15;;;;;;;;;4.40;4.40;;;;;21.08;34.79;99008.28;5088318;28;8869;-74
2022/09/19 08:42:49;;;;;;;;;5.60;5.60;;;;;21.18;33.91;99013.94;5071208;28;8853;-74
2022/09/19 08:45:27;;;;;;;;;6.00;6.00;;;;;21.34;33.74;99014.84;5088069;28;8858;-74
2022/09/19 08:47:58;;;;;;;;;5.80;5.00;;;;;20.29;36.35;99024.56;5071065;28;8949;-75
2022/09/19 08:50:32;;;;;;;;;6.80;6.60;;;;;19.82;37.44;99039.13;5070909;28;8849;-74
2022/09/19 08:53:13;;;;;;;;;5.00;5.00;;;;;18.80;38.17;99040.09;5088187;28;8850;-77
2022/09/19 08:55:43;;;;;;;;;6.00;6.00;;;;;18.73;40.01;99043.91;5071301;28;8971;-74
2022/09/19 08:58:23;;;;;;;;;5.40;5.40;;;;;18.14;42.93;99063.91;5054522;28;8850;-75
2022/09/19 09:01:33;;;;;;;;;6.60;5.00;;;;;17.22;45.21;99102.44;5116263;27;9583;-74
2022/09/19 09:04:27;;;;;;;;;3.20;3.20;;;;;17.06;46.84;99086.28;5083663;27;8834;-73
2022/09/19 09:07:11;;;;;;;;;3.00;3.00;;;;;17.12;46.38;99093.97;5095360;27;9008;-76
2022/09/19 09:09:56;;;;;;;;;3.40;3.40;;;;;16.88;46.58;99092.16;5111905;27;8853;-74
2022/09/19 09:12:40;;;;;;;;;5.40;4.80;;;;;16.98;46.44;99104.13;5094649;27;8963;-74
2022/09/19 09:15:21;;;;;;;;;6.00;6.00;;;;;16.77;49.27;99116.22;5086270;28;8851;-74
2022/09/19 09:18:29;;;;;;;;;15.20;14.20;;;;;16.67;56.16;99127.94;5053737;28;8852;-75
2022/09/19 09:21:08;;;;;;;;;14.60;11.80;;;;;16.12;58.82;99141.03;5086736;28;9558;-74
2022/09/19 09:23:42;;;;;;;;;13.60;12.20;;;;;16.49;57.43;99126.75;5050014;28;8950;-73
2022/09/19 09:26:36;;;;;;;;;18.40;14.20;;;;;16.04;58.24;99130.72;5083555;28;8828;-73
2022/09/19 09:29:12;;;;;;;;;14.00;13.00;;;;;15.72;59.48;99139.53;5070259;28;9589;-74
2022/09/19 09:31:54;;;;;;;;;13.60;13.60;;;;;15.67;59.18;99130.91;5035449;28;8840;-77
2022/09/19 09:34:40;;;;;;;;;11.20;10.00;;;;;15.37;60.23;99151.88;5050347;28;8878;-72
2022/09/19 09:37:21;;;;;;;;;10.60;9.60;;;;;15.00;60.54;99176.44;5051651;28;8857;-74
2022/09/19 09:40:08;;;;;;;;;10.80;10.00;;;;;15.10;61.10;99170.03;5032975;28;9018;-78
2022/09/19 09:42:48;;;;;;;;;7.40;7.20;;;;;14.95;61.24;99165.16;5077021;28;8874;-78
2022/09/19 09:45:31;;;;;;;;;8.00;7.20;;;;;14.85;60.51;99174.19;5046248;28;8879;-75
2022/09/19 09:48:11;;;;;;;;;7.40;7.40;;;;;14.58;59.60;99180.03;5029752;28;8874;-74
2022/09/19 09:50:55;;;;;;;;;6.00;6.00;;;;;14.78;59.54;99207.56;5046640;28;8863;-76
2022/09/19 09:53:40;;;;;;;;;9.00;9.00;;;;;14.61;60.55;99194.84;5029542;28;8835;-73
2022/09/19 09:56:17;;;;;;;;;9.20;9.20;;;;;14.48;61.44;99209.09;5084144;28;8853;-74
2022/09/19 10:03:34;;;;;;;;;9.80;8.00;;;;;14.48;61.52;99214.34;5067464;28;8927;-75
2022/09/19 10:05:16;;;;;;;;;5.60;5.40;;;;;14.80;61.60;99197.91;5067086;28;8866;-80
2022/09/19 10:07:58;;;;;;;;;10.60;9.60;;;;;14.83;62.48;99200.47;5033122;28;8972;-71
2022/09/19 10:10:32;;;;;;;;;10.40;9.60;;;;;14.88;62.79;99195.97;5066334;28;8868;-75
2022/09/19 10:13:08;;;;;;;;;5.60;5.40;;;;;14.64;59.88;99200.03;5065796;28;8863;-76
2022/09/19 10:15:40;;;;;;;;;5.20;4.40;;;;;14.56;64.96;99200.16;5065877;28;8860;-75
2022/09/19 10:18:18;;;;;;;;;6.60;5.00;;;;;14.58;61.89;99200.19;5049446;28;9006;-78
2022/09/19 10:21:06;;;;;;;;;8.40;7.80;;;;;14.69;62.35;99208.66;5049375;28;8838;-74
2022/09/19 10:23:45;;;;;;;;;5.20;4.20;;;;;14.52;62.09;99218.66;5049620;28;8854;-76
2022/09/19 10:26:29;;;;;;;;;10.60;8.20;;;;;14.61;62.10;99224.59;5049477;28;8874;-76
2022/09/19 10:29:14;;;;;;;;;6.20;6.00;;;;;14.70;61.98;99227.91;5033036;28;8976;-74
2022/09/19 10:31:48;;;;;;;;;7.60;6.40;;;;;14.80;61.03;99234.66;5030508;28;8889;-75
2022/09/19 10:34:42;;;;;;;;;4.60;4.60;;;;;14.85;61.58;99231.94;4989930;28;8856;-79
2022/09/19 10:37:27;;;;;;;;;5.80;5.00;;;;;15.05;62.13;99220.94;5022523;28;8844;-74
2022/09/19 10:40:01;;;;;;;;;7.00;7.00;;;;;15.45;61.54;99218.22;4987922;28;8858;-72
2022/09/19 10:42:41;;;;;;;;;7.80;6.40;;;;;15.95;59.79;99220.41;4969965;28;9651;-74
2022/09/19 10:45:25;;;;;;;;;10.20;7.20;;;;;16.29;58.88;99219.47;4986313;28;9079;-75
2022/09/19 10:48:01;;;;;;;;;7.80;6.40;;;;;16.42;58.56;99223.44;4969847;28;8866;-76
2022/09/19 10:50:32;;;;;;;;;9.00;7.40;;;;;16.78;58.08;99202.19;4999773;28;8841;-74
2022/09/19 10:53:19;;;;;;;;;5.80;5.80;;;;;17.19;58.82;99186.84;5008974;28;8856;-73
2022/09/19 10:55:49;;;;;;;;;7.80;6.80;;;;;17.48;57.39;99170.03;4973019;28;8863;-73
2022/09/19 10:58:22;;;;;;;;;10.60;9.20;;;;;17.38;57.36;99166.00;5005790;28;8856;-75
2022/09/19 11:01:21;;;;;;;;;7.20;5.80;;;;;17.83;56.66;99160.00;5001491;28;8930;-74
2022/09/19 11:04:02;;;;;;;;;5.40;5.40;;;;;18.14;56.50;99150.13;5025392;28;8958;-78
2022/09/19 11:06:31;;;;;;;;;8.80;7.60;;;;;18.14;55.76;99142.22;5009244;28;8845;-74
2022/09/19 11:09:24;;;;;;;;;4.60;4.60;;;;;18.24;54.56;99130.38;5008778;28;8857;-76
2022/09/19 11:11:53;;;;;;;;;6.00;6.00;;;;;18.51;53.49;99133.72;5045381;28;8846;-77
2022/09/19 11:14:38;;;;;;;;;9.40;9.40;;;;;18.54;54.34;99130.09;4977511;28;8970;-74
2022/09/19 11:17:38;;;;;;;;;8.60;7.40;;;;;18.28;54.94;99166.31;5083061;28;8963;-74
2022/09/19 11:20:19;;;;;;;;;8.80;8.00;;;;;17.24;58.33;99178.78;5050611;28;8834;-77
2022/09/19 11:23:27;;;;;;;;;9.00;8.00;;;;;17.61;55.69;99181.00;5084195;28;8915;-77
2022/09/19 11:26:08;;;;;;;;;8.40;8.20;;;;;16.87;57.36;99207.19;5069823;28;8944;-73
2022/09/19 11:28:51;;;;;;;;;4.60;4.60;;;;;16.48;60.97;99209.25;5087942;28;9620;-76
2022/09/19 11:31:35;;;;;;;;;9.40;7.60;;;;;16.85;60.57;99223.97;5087673;28;8870;-74
2022/09/19 11:34:36;;;;;;;;;6.00;5.60;;;;;16.29;62.25;99236.09;5087616;28;9012;-76
2022/09/19 11:37:41;;;;;;;;;8.20;7.40;;;;;16.01;63.85;99258.84;5071006;28;8838;-78
2022/09/19 11:40:32;;;;;;;;;7.00;6.80;;;;;15.46;64.69;99279.50;5052990;28;8979;-76
2022/09/19 11:43:15;;;;;;;;;14.60;14.00;;;;;15.37;66.59;99278.00;5053286;28;8857;-76
2022/09/19 11:45:59;;;;;;;;;8.80;7.40;;;;;15.33;66.23;99286.81;5070075;28;9696;-74
2022/09/19 11:48:55;;;;;;;;;6.80;6.80;;;;;14.68;68.60;99293.53;5086949;28;8874;-74
2022/09/19 11:51:31;;;;;;;;;6.40;6.40;;;;;14.89;68.87;99288.72;5087328;28;8871;-78
2022/09/19 11:54:18;;;;;;;;;10.40;9.40;;;;;14.43;70.34;99285.28;5070122;28;8865;-75
2022/09/19 11:57:13;;;;;;;;;7.60;7.60;;;;;14.43;71.04;99295.78;5070316;28;8854;-75
2022/09/19 12:00:14;;;;;;;;;12.60;12.60;;;;;14.50;71.70;99284.28;5025721;28;8878;-77
2022/09/19 12:03:16;;;;;;;;;10.00;10.00;;;;;15.05;68.85;99304.97;5012150;28;9034;-76
2022/09/19 12:06:20;;;;;;;;;18.20;14.00;;;;;14.96;69.25;99291.19;4996435;28;8864;-73
2022/09/19 12:09:07;;;;;;;;;12.40;12.20;;;;;15.34;67.77;99286.78;4995904;28;8945;-74
2022/09/19 12:11:42;;;;;;;;;11.40;10.00;;;;;15.11;67.95;99299.63;4996352;28;8840;-77
2022/09/19 12:14:20;;;;;;;;;8.40;8.40;;;;;15.48;67.07;99282.97;4996326;28;8871;-75
2022/09/19 12:16:55;;;;;;;;;25.00;24.20;;;;;15.76;66.20;99283.16;5012388;28;8848;-73
2022/09/19 12:19:33;;;;;;;;;12.20;12.20;;;;;16.30;64.79;99284.34;5012082;28;9740;-75
2022/09/19 12:22:13;;;;;;;;;12.40;12.40;;;;;16.74;63.03;99271.66;4995920;28;8978;-73
2022/09/19 12:24:53;;;;;;;;;8.00;7.80;;;;;16.30;64.11;99263.31;5011951;28;8925;-74
2022/09/19 12:27:35;;;;;;;;;6.80;6.60;;;;;16.71;62.02;99258.56;4996314;28;8860;-77
2022/09/19 12:30:13;;;;;;;;;11.00;10.00;;;;;16.77;62.52;99259.25;4995510;28;9673;-73
2022/09/19 12:32:49;;;;;;;;;7.20;7.20;;;;;17.32;60.38;99267.22;5012001;28;9738;-74
2022/09/19 12:35:31;;;;;;;;;10.20;9.80;;;;;17.17;60.49;99267.72;4995957;28;8852;-75
2022/09/19 12:38:17;;;;;;;;;7.80;6.80;;;;;17.50;59.22;99262.25;4996399;28;8848;-76